Time;durP1;ratioP1;P1;durP2;ratioP2;P2;SDS_P1;SDS_P2;PMS_P1;PMS_P2;Temp;Humidity;BMP_temperature;BMP_pressure;BME280_temperature;BME280_humidity;BME280_pressure;Samples;Min_cycle;Max_cycle;Signal;HPM_P1;HPM_P2
2022/05/18 00:01:06;;;;;;;52.38;8.68;;;;;;;;;;5012686;28;20116;-47
2022/05/18 00:03:35;;;;;;;53.55;9.50;;;;;;;;;;4980350;28;20050;-43
2022/05/18 00:06:04;;;;;;;50.53;9.93;;;;;;;;;;5011116;28;20054;-45
2022/05/18 00:08:36;;;;;;;59.72;9.23;;;;;;;;;;4996159;28;20798;-48
2022/05/18 00:11:05;;;;;;;60.78;9.77;;;;;;;;;;4998058;28;20027;-43
2022/05/18 00:13:32;;;;;;;56.33;8.93;;;;;;;;;;4983191;28;20030;-50
2022/05/18 00:15:59;;;;;;;60.15;9.55;;;;;;;;;;4982106;28;20141;-44
2022/05/18 00:18:27;;;;;;;57.08;10.75;;;;;;;;;;4981169;28;20038;-49
2022/05/18 00:20:54;;;;;;;53.58;11.75;;;;;;;;;;4982321;28;20559;-50
2022/05/18 00:23:21;;;;;;;54.97;11.18;;;;;;;;;;4981375;28;20584;-44
2022/05/18 00:25:49;;;;;;;54.63;11.18;;;;;;;;;;4981504;28;20108;-48
2022/05/18 00:28:16;;;;;;;57.63;11.38;;;;;;;;;;4982330;28;20496;-44
2022/05/18 00:30:43;;;;;;;53.88;11.38;;;;;;;;;;4983371;28;20034;-44
2022/05/18 00:33:11;;;;;;;54.38;11.43;;;;;;;;;;4974473;28;20034;-48
2022/05/18 00:35:39;;;;;;;53.50;12.13;;;;;;;;;;4970749;28;20160;-46
2022/05/18 00:38:07;;;;;;;55.45;10.63;;;;;;;;;;4971775;28;20585;-44
2022/05/18 00:40:34;;;;;;;64.70;12.30;;;;;;;;;;4978938;28;20526;-46
2022/05/18 00:43:01;;;;;;;65.13;12.85;;;;;;;;;;4981263;28;20105;-43
2022/05/18 00:45:28;;;;;;;56.22;11.45;;;;;;;;;;4981933;28;20054;-44
2022/05/18 00:47:55;;;;;;;59.60;13.27;;;;;;;;;;4982751;28;20097;-43
2022/05/18 00:50:33;;;;;;;60.78;11.95;;;;;;;;;;4980317;28;20034;-44
2022/05/18 00:52:59;;;;;;;62.63;11.25;;;;;;;;;;4971425;28;20030;-43
2022/05/18 00:55:28;;;;;;;57.17;12.18;;;;;;;;;;4972136;28;20027;-43
2022/05/18 00:58:04;;;;;;;51.58;10.63;;;;;;;;;;4971546;28;20094;-44
2022/05/18 01:00:31;;;;;;;52.13;11.13;;;;;;;;;;4972642;28;20035;-45
2022/05/18 01:03:01;;;;;;;63.88;11.95;;;;;;;;;;4971930;28;20054;-46
2022/05/18 01:05:30;;;;;;;62.92;11.98;;;;;;;;;;4972084;28;20124;-45
2022/05/18 01:07:58;;;;;;;65.55;12.85;;;;;;;;;;4973091;28;20385;-45
2022/05/18 01:10:26;;;;;;;64.32;11.88;;;;;;;;;;4971669;28;20030;-42
2022/05/18 01:12:53;;;;;;;55.72;11.68;;;;;;;;;;4972740;28;20508;-45
2022/05/18 01:15:22;;;;;;;63.22;12.25;;;;;;;;;;4973900;28;20027;-45
2022/05/18 01:17:50;;;;;;;46.72;10.57;;;;;;;;;;4972670;28;20030;-43
2022/05/18 01:20:22;;;;;;;50.40;12.40;;;;;;;;;;4978460;28;20130;-44
2022/05/18 01:22:55;;;;;;;56.90;11.25;;;;;;;;;;4970460;28;20045;-44
2022/05/18 01:25:44;;;;;;;60.78;11.98;;;;;;;;;;4977967;28;20452;-43
2022/05/18 01:28:11;;;;;;;52.55;10.80;;;;;;;;;;4978413;28;20489;-43
2022/05/18 01:30:42;;;;;;;59.47;11.02;;;;;;;;;;4982231;28;20117;-47
2022/05/18 01:33:09;;;;;;;44.70;11.15;;;;;;;;;;4973000;28;20109;-44
2022/05/18 01:35:39;;;;;;;52.58;11.18;;;;;;;;;;4990877;28;20026;-42
2022/05/18 01:38:06;;;;;;;46.40;10.93;;;;;;;;;;4991383;28;20101;-46
2022/05/18 01:40:42;;;;;;;40.58;10.15;;;;;;;;;;4989881;28;20129;-48
2022/05/18 01:43:28;;;;;;;53.47;11.35;;;;;;;;;;4990822;28;20416;-44
2022/05/18 01:46:00;;;;;;;50.08;11.27;;;;;;;;;;4988682;28;20035;-46
2022/05/18 01:48:34;;;;;;;60.50;11.37;;;;;;;;;;4971988;28;20042;-43
2022/05/18 01:51:01;;;;;;;50.83;11.27;;;;;;;;;;4972199;28;20673;-44
2022/05/18 01:53:29;;;;;;;49.55;11.13;;;;;;;;;;4971947;28;20078;-43
2022/05/18 01:55:56;;;;;;;41.80;10.35;;;;;;;;;;4970273;28;20038;-48
2022/05/18 01:58:24;;;;;;;42.22;9.77;;;;;;;;;;4972300;28;20033;-43
2022/05/18 02:00:52;;;;;;;55.10;12.05;;;;;;;;;;4971558;28;20057;-45
2022/05/18 02:03:20;;;;;;;39.92;9.90;;;;;;;;;;4970940;28;20061;-48
2022/05/18 02:05:47;;;;;;;43.55;10.77;;;;;;;;;;4972557;28;20073;-45
2022/05/18 02:08:15;;;;;;;42.95;10.13;;;;;;;;;;4971886;28;20030;-43
2022/05/18 02:10:43;;;;;;;37.42;11.38;;;;;;;;;;4971684;28;20508;-43
2022/05/18 02:13:10;;;;;;;48.35;10.80;;;;;;;;;;4954058;28;20454;-46
2022/05/18 02:15:37;;;;;;;43.70;10.48;;;;;;;;;;4971709;28;20031;-46
2022/05/18 02:18:04;;;;;;;41.38;10.13;;;;;;;;;;4971574;28;20085;-44
2022/05/18 02:20:32;;;;;;;39.67;9.50;;;;;;;;;;4973520;28;20170;-44
2022/05/18 02:22:59;;;;;;;41.00;10.50;;;;;;;;;;4976300;28;20078;-45
2022/05/18 02:25:26;;;;;;;43.83;10.05;;;;;;;;;;4975816;28;20630;-43
2022/05/18 02:27:53;;;;;;;35.78;9.75;;;;;;;;;;4979822;28;20022;-46
2022/05/18 02:30:20;;;;;;;38.78;10.77;;;;;;;;;;4985557;28;20137;-43
2022/05/18 02:32:47;;;;;;;40.20;10.48;;;;;;;;;;4984033;28;20026;-45
2022/05/18 02:35:14;;;;;;;40.45;10.50;;;;;;;;;;4983765;28;20034;-44
2022/05/18 02:37:41;;;;;;;46.53;11.43;;;;;;;;;;4983379;28;20022;-46
2022/05/18 02:40:09;;;;;;;37.22;9.30;;;;;;;;;;4985027;28;20106;-44
2022/05/18 02:42:37;;;;;;;38.85;9.50;;;;;;;;;;4984065;28;20030;-47
2022/05/18 02:45:04;;;;;;;38.45;9.55;;;;;;;;;;4979384;28;20026;-45
2022/05/18 02:47:31;;;;;;;39.17;10.43;;;;;;;;;;4975813;28;20073;-44
2022/05/18 02:49:58;;;;;;;35.85;9.75;;;;;;;;;;4976014;28;20031;-47
2022/05/18 02:52:25;;;;;;;52.30;9.45;;;;;;;;;;4976902;28;20065;-42
2022/05/18 02:57:38;;;;;;;41.42;10.13;;;;;;;;;;4976858;28;20097;-44
2022/05/18 03:00:07;;;;;;;48.65;9.98;;;;;;;;;;4975632;28;20030;-42
2022/05/18 03:02:35;;;;;;;30.92;8.77;;;;;;;;;;4974854;28;20043;-45
2022/05/18 03:05:02;;;;;;;31.92;8.88;;;;;;;;;;4974487;28;20039;-44
2022/05/18 03:07:29;;;;;;;31.98;8.65;;;;;;;;;;4957583;28;20031;-43
2022/05/18 03:09:56;;;;;;;35.20;8.75;;;;;;;;;;4975899;28;20042;-42
2022/05/18 03:12:22;;;;;;;33.88;9.15;;;;;;;;;;4975858;28;20130;-45
2022/05/18 03:14:49;;;;;;;36.45;9.05;;;;;;;;;;4975078;28;20030;-46
2022/05/18 03:17:16;;;;;;;36.75;8.60;;;;;;;;;;4975749;28;20026;-43
2022/05/18 03:19:43;;;;;;;35.10;9.07;;;;;;;;;;4984047;28;20121;-43
2022/05/18 03:24:56;;;;;;;28.70;8.85;;;;;;;;;;4984775;28;20045;-44
2022/05/18 03:27:23;;;;;;;28.35;8.10;;;;;;;;;;4990609;28;20070;-42
2022/05/18 03:29:50;;;;;;;34.05;8.88;;;;;;;;;;4993736;28;20485;-43
2022/05/18 03:32:17;;;;;;;27.10;8.05;;;;;;;;;;4994855;28;20029;-45
2022/05/18 03:34:44;;;;;;;29.85;8.85;;;;;;;;;;4994545;28;20023;-45
2022/05/18 03:37:11;;;;;;;30.90;8.57;;;;;;;;;;4995002;28;20040;-42
2022/05/18 03:39:38;;;;;;;29.15;8.48;;;;;;;;;;4995138;28;20089;-46
2022/05/18 03:42:06;;;;;;;29.13;8.40;;;;;;;;;;4994488;28;20041;-46
2022/05/18 03:44:34;;;;;;;33.35;8.77;;;;;;;;;;4995516;28;20034;-42
2022/05/18 03:47:03;;;;;;;30.38;8.30;;;;;;;;;;4994593;28;20058;-45
2022/05/18 03:49:30;;;;;;;25.95;7.80;;;;;;;;;;4994872;28;20476;-42
2022/05/18 03:51:58;;;;;;;24.20;7.10;;;;;;;;;;4994576;28;20061;-44
2022/05/18 03:54:25;;;;;;;28.10;7.70;;;;;;;;;;4993995;28;20065;-45
2022/05/18 03:56:52;;;;;;;23.40;8.38;;;;;;;;;;4995197;28;20432;-43
2022/05/18 03:59:19;;;;;;;21.20;7.47;;;;;;;;;;4994588;28;20041;-42
2022/05/18 04:01:46;;;;;;;26.95;8.30;;;;;;;;;;4994288;28;20062;-44
2022/05/18 04:04:13;;;;;;;22.75;7.78;;;;;;;;;;4994623;28;20042;-49
2022/05/18 04:06:40;;;;;;;20.08;7.57;;;;;;;;;;4994140;28;20023;-45
2022/05/18 04:09:07;;;;;;;23.27;7.93;;;;;;;;;;4994975;28;20087;-43
2022/05/18 04:11:34;;;;;;;25.65;7.28;;;;;;;;;;4994391;28;20045;-46
2022/05/18 04:14:01;;;;;;;24.95;7.57;;;;;;;;;;4994352;28;20031;-42
2022/05/18 04:16:28;;;;;;;23.00;7.60;;;;;;;;;;4995640;28;20053;-43
2022/05/18 04:18:55;;;;;;;18.20;6.63;;;;;;;;;;4994988;28;20026;-45
2022/05/18 04:21:22;;;;;;;22.63;7.25;;;;;;;;;;4993835;28;20512;-43
2022/05/18 04:23:49;;;;;;;24.02;7.15;;;;;;;;;;4994655;28;20026;-45
2022/05/18 04:26:16;;;;;;;28.70;7.97;;;;;;;;;;4993953;28;20034;-46
2022/05/18 04:28:43;;;;;;;19.98;6.85;;;;;;;;;;4994014;28;20464;-42
2022/05/18 04:31:10;;;;;;;21.80;7.15;;;;;;;;;;4994260;28;20096;-45
2022/05/18 04:33:38;;;;;;;20.08;6.97;;;;;;;;;;4993547;28;20521;-43
2022/05/18 04:36:06;;;;;;;26.80;7.03;;;;;;;;;;4994474;28;20041;-42
2022/05/18 04:38:33;;;;;;;17.70;6.90;;;;;;;;;;4993963;28;20034;-42
2022/05/18 04:41:00;;;;;;;16.80;6.57;;;;;;;;;;4993663;28;20030;-42
2022/05/18 04:43:27;;;;;;;16.52;6.80;;;;;;;;;;4993738;28;20022;-44
2022/05/18 04:45:55;;;;;;;20.90;6.75;;;;;;;;;;4993485;28;20038;-44
2022/05/18 04:48:24;;;;;;;21.58;8.25;;;;;;;;;;4994243;28;20027;-44
2022/05/18 04:50:51;;;;;;;19.55;6.38;;;;;;;;;;4993051;28;20440;-43
2022/05/18 04:53:19;;;;;;;14.68;5.70;;;;;;;;;;4993758;28;20084;-42
2022/05/18 04:55:47;;;;;;;18.48;6.68;;;;;;;;;;4993886;28;20044;-43
2022/05/18 04:58:14;;;;;;;14.73;6.68;;;;;;;;;;4993371;28;20034;-45
2022/05/18 05:00:42;;;;;;;23.38;6.85;;;;;;;;;;4993925;28;20061;-42
2022/05/18 05:03:09;;;;;;;15.75;6.15;;;;;;;;;;4993172;28;20129;-42
2022/05/18 05:05:36;;;;;;;16.75;5.97;;;;;;;;;;4993285;28;20076;-43
2022/05/18 05:08:03;;;;;;;20.20;5.97;;;;;;;;;;4993454;28;20092;-46
2022/05/18 05:10:30;;;;;;;19.20;6.07;;;;;;;;;;4993348;28;20030;-44
2022/05/18 05:12:57;;;;;;;16.60;6.47;;;;;;;;;;4993680;28;20022;-43
2022/05/18 05:15:24;;;;;;;18.95;5.78;;;;;;;;;;4993185;28;20093;-43
2022/05/18 05:17:51;;;;;;;13.68;5.82;;;;;;;;;;4993176;28;20034;-46
2022/05/18 05:20:18;;;;;;;16.33;6.25;;;;;;;;;;4993477;28;20037;-45
2022/05/18 05:22:45;;;;;;;20.92;5.82;;;;;;;;;;4993152;28;20023;-46
2022/05/18 05:25:14;;;;;;;18.95;6.10;;;;;;;;;;4993551;28;20033;-44
2022/05/18 05:27:41;;;;;;;15.45;5.70;;;;;;;;;;4992928;28;20379;-43
2022/05/18 05:30:09;;;;;;;17.27;6.07;;;;;;;;;;4993452;28;20034;-42
2022/05/18 05:32:36;;;;;;;15.65;5.35;;;;;;;;;;4992779;28;20018;-43
2022/05/18 05:35:03;;;;;;;13.57;5.80;;;;;;;;;;4993071;28;20022;-43
2022/05/18 05:37:30;;;;;;;17.08;5.90;;;;;;;;;;4993122;28;20117;-44
2022/05/18 05:39:57;;;;;;;16.55;5.63;;;;;;;;;;4992545;28;20044;-42
2022/05/18 05:42:24;;;;;;;13.88;5.40;;;;;;;;;;4993153;28;20036;-43
2022/05/18 05:44:51;;;;;;;18.17;5.93;;;;;;;;;;4992555;28;20404;-45
2022/05/18 05:47:19;;;;;;;12.55;5.03;;;;;;;;;;4993220;28;20033;-42
2022/05/18 05:49:45;;;;;;;14.30;5.93;;;;;;;;;;4993207;28;20524;-46
2022/05/18 05:52:13;;;;;;;14.85;5.60;;;;;;;;;;4992489;28;20040;-43
2022/05/18 05:54:40;;;;;;;17.10;5.97;;;;;;;;;;4993177;28;20082;-42
2022/05/18 05:57:07;;;;;;;14.27;5.47;;;;;;;;;;4992558;28;20033;-43
2022/05/18 05:59:36;;;;;;;12.88;5.90;;;;;;;;;;4992652;28;20023;-43
2022/05/18 06:02:04;;;;;;;14.02;5.72;;;;;;;;;;4992744;28;20086;-46
2022/05/18 06:04:32;;;;;;;12.48;5.20;;;;;;;;;;4991389;28;20050;-46
2022/05/18 06:06:59;;;;;;;18.48;5.72;;;;;;;;;;4993139;28;20054;-42
2022/05/18 06:09:27;;;;;;;18.52;5.60;;;;;;;;;;4992551;28;20030;-44
2022/05/18 06:11:54;;;;;;;11.82;5.45;;;;;;;;;;4992676;28;20492;-44
2022/05/18 06:14:21;;;;;;;15.40;5.00;;;;;;;;;;4992955;28;20113;-42
2022/05/18 06:16:48;;;;;;;12.85;5.05;;;;;;;;;;4992090;28;20369;-46
2022/05/18 06:19:16;;;;;;;13.88;5.60;;;;;;;;;;4993141;28;20101;-42
2022/05/18 06:21:43;;;;;;;11.82;5.15;;;;;;;;;;4992250;28;20038;-45
2022/05/18 06:24:11;;;;;;;12.93;5.53;;;;;;;;;;4992803;28;20040;-46
2022/05/18 06:26:38;;;;;;;14.02;5.18;;;;;;;;;;4992535;28;20019;-42
2022/05/18 06:29:05;;;;;;;13.52;5.32;;;;;;;;;;4975123;28;20027;-42
2022/05/18 06:31:32;;;;;;;15.90;5.15;;;;;;;;;;4992357;28;20041;-47
2022/05/18 06:33:59;;;;;;;12.82;4.85;;;;;;;;;;4992193;28;20026;-42
2022/05/18 06:36:26;;;;;;;11.27;4.90;;;;;;;;;;4992965;28;20516;-46
2022/05/18 06:38:53;;;;;;;14.50;4.63;;;;;;;;;;4992150;28;20031;-47
2022/05/18 06:41:23;;;;;;;10.75;4.78;;;;;;;;;;4992285;28;20030;-44
2022/05/18 06:43:52;;;;;;;13.15;5.70;;;;;;;;;;4992212;28;20030;-44
2022/05/18 06:46:19;;;;;;;10.00;4.90;;;;;;;;;;4992243;28;20023;-42
2022/05/18 06:48:46;;;;;;;12.65;4.82;;;;;;;;;;4992439;28;20034;-42
2022/05/18 06:51:15;;;;;;;12.48;5.25;;;;;;;;;;4992061;28;20494;-42
2022/05/18 06:53:42;;;;;;;11.45;5.00;;;;;;;;;;4992326;28;20381;-44
2022/05/18 06:56:09;;;;;;;14.02;5.32;;;;;;;;;;4992297;28;20077;-45
2022/05/18 06:58:36;;;;;;;11.02;5.00;;;;;;;;;;4992270;28;20084;-42
2022/05/18 07:01:06;;;;;;;14.75;5.32;;;;;;;;;;4992418;28;20034;-44
2022/05/18 07:03:33;;;;;;;14.75;5.35;;;;;;;;;;4991622;28;20078;-42
2022/05/18 07:06:00;;;;;;;9.30;4.60;;;;;;;;;;4992287;28;20026;-45
2022/05/18 07:08:27;;;;;;;10.18;4.95;;;;;;;;;;4992055;28;20018;-42
2022/05/18 07:10:53;;;;;;;11.32;4.97;;;;;;;;;;4992145;28;20034;-42
2022/05/18 07:13:21;;;;;;;11.77;5.32;;;;;;;;;;4992468;28;20041;-43
2022/05/18 07:15:48;;;;;;;9.57;4.32;;;;;;;;;;4994572;28;20085;-45
2022/05/18 07:18:15;;;;;;;12.10;5.97;;;;;;;;;;4995674;28;20041;-42
2022/05/18 07:20:42;;;;;;;10.20;4.82;;;;;;;;;;4995576;28;20034;-45
2022/05/18 07:23:10;;;;;;;12.88;4.95;;;;;;;;;;4995662;28;20038;-47
2022/05/18 07:25:38;;;;;;;11.88;5.32;;;;;;;;;;4995386;28;20066;-44
2022/05/18 07:28:05;;;;;;;11.77;5.53;;;;;;;;;;4995276;28;20027;-42
2022/05/18 07:30:32;;;;;;;11.52;5.38;;;;;;;;;;4995862;28;20388;-43
2022/05/18 07:32:59;;;;;;;10.43;5.32;;;;;;;;;;4994620;28;20036;-44
2022/05/18 07:35:28;;;;;;;14.65;5.50;;;;;;;;;;4995725;28;20102;-43
2022/05/18 07:37:57;;;;;;;11.73;5.20;;;;;;;;;;4995374;28;20085;-47
2022/05/18 07:40:24;;;;;;;13.32;6.20;;;;;;;;;;4994681;28;20038;-42
2022/05/18 07:42:56;;;;;;;13.13;5.80;;;;;;;;;;4995501;28;20057;-45
2022/05/18 07:45:26;;;;;;;15.88;5.93;;;;;;;;;;4994405;28;20070;-42
2022/05/18 07:47:53;;;;;;;14.25;5.78;;;;;;;;;;4995475;28;20456;-45
2022/05/18 07:50:20;;;;;;;11.13;5.38;;;;;;;;;;4995290;28;20065;-45
2022/05/18 07:52:47;;;;;;;16.55;5.50;;;;;;;;;;4994851;28;20026;-42
2022/05/18 07:55:15;;;;;;;12.75;5.25;;;;;;;;;;4995456;28;20022;-44
2022/05/18 07:57:42;;;;;;;11.82;5.35;;;;;;;;;;4994318;28;20026;-43
2022/05/18 08:00:10;;;;;;;12.43;5.78;;;;;;;;;;4995212;28;20038;-45
2022/05/18 08:02:37;;;;;;;12.90;5.95;;;;;;;;;;4994367;28;20035;-43
2022/05/18 08:05:04;;;;;;;13.65;6.25;;;;;;;;;;4994763;28;20026;-43
2022/05/18 08:07:31;;;;;;;13.52;5.25;;;;;;;;;;4995103;28;20034;-45
2022/05/18 08:15:29;;;;;;;12.07;5.82;;;;;;;;;;4994298;28;20048;-46
2022/05/18 08:17:56;;;;;;;13.32;6.13;;;;;;;;;;4994727;28;20484;-45
2022/05/18 08:20:24;;;;;;;11.60;5.32;;;;;;;;;;4994862;28;20030;-43
2022/05/18 08:22:52;;;;;;;13.70;5.35;;;;;;;;;;4993856;28;20170;-45
2022/05/18 08:25:19;;;;;;;10.40;4.88;;;;;;;;;;4994164;28;20026;-44
2022/05/18 08:27:47;;;;;;;11.80;5.45;;;;;;;;;;4993769;28;20839;-47
2022/05/18 08:30:17;;;;;;;9.73;5.35;;;;;;;;;;4994558;28;20065;-48
2022/05/18 08:32:44;;;;;;;9.82;4.82;;;;;;;;;;4994086;28;20064;-47
2022/05/18 08:35:11;;;;;;;11.10;4.88;;;;;;;;;;4988398;28;20022;-42
2022/05/18 08:37:39;;;;;;;8.98;4.47;;;;;;;;;;4975814;28;20133;-44
2022/05/18 08:40:08;;;;;;;13.82;5.50;;;;;;;;;;4993131;28;20051;-43
2022/05/18 08:42:35;;;;;;;15.68;5.70;;;;;;;;;;4995302;28;20023;-44
2022/05/18 08:45:03;;;;;;;14.02;5.65;;;;;;;;;;4993492;28;20027;-43
2022/05/18 08:47:36;;;;;;;11.50;5.25;;;;;;;;;;4993919;28;20046;-43
2022/05/18 08:50:12;;;;;;;10.77;4.90;;;;;;;;;;4993839;28;20629;-44
2022/05/18 08:52:46;;;;;;;9.07;4.97;;;;;;;;;;4976086;28;20400;-44
2022/05/18 08:55:25;;;;;;;9.88;4.60;;;;;;;;;;4992360;28;20070;-42
2022/05/18 08:57:53;;;;;;;9.93;4.57;;;;;;;;;;4992475;28;20041;-43
2022/05/18 09:00:22;;;;;;;9.52;4.82;;;;;;;;;;4993256;28;20138;-42
2022/05/18 09:02:54;;;;;;;10.18;5.05;;;;;;;;;;4993259;28;20058;-42
2022/05/18 09:05:27;;;;;;;16.10;5.35;;;;;;;;;;4992482;28;20030;-42
2022/05/18 09:08:00;;;;;;;8.95;4.55;;;;;;;;;;4992800;28;20054;-43
2022/05/18 09:10:39;;;;;;;13.32;5.25;;;;;;;;;;4992437;28;20069;-42
2022/05/18 09:13:06;;;;;;;11.52;5.75;;;;;;;;;;4992252;28;20038;-42
2022/05/18 09:15:35;;;;;;;9.70;4.82;;;;;;;;;;4992640;28;20042;-47
2022/05/18 09:18:07;;;;;;;10.95;4.80;;;;;;;;;;4992107;28;20039;-44
2022/05/18 09:20:49;;;;;;;9.45;5.22;;;;;;;;;;4992543;28;20034;-43
2022/05/18 09:23:37;;;;;;;8.77;4.68;;;;;;;;;;4992673;28;20558;-42
2022/05/18 09:26:04;;;;;;;10.10;4.85;;;;;;;;;;4992204;28;20019;-45
2022/05/18 09:28:34;;;;;;;8.73;4.60;;;;;;;;;;4992271;28;20034;-44
2022/05/18 09:31:09;;;;;;;9.70;4.80;;;;;;;;;;4992723;28;20468;-43
2022/05/18 09:33:36;;;;;;;11.32;5.50;;;;;;;;;;4974680;28;20117;-42
2022/05/18 09:36:24;;;;;;;11.30;4.95;;;;;;;;;;4992494;28;20026;-43
2022/05/18 09:39:08;;;;;;;11.32;4.80;;;;;;;;;;4992305;28;20552;-42
2022/05/18 09:41:37;;;;;;;10.15;4.88;;;;;;;;;;4992132;28;20034;-42
2022/05/18 09:44:20;;;;;;;10.27;4.93;;;;;;;;;;4992278;28;20384;-51
2022/05/18 09:46:48;;;;;;;10.25;5.20;;;;;;;;;;4992024;28;20029;-44
2022/05/18 09:49:24;;;;;;;8.40;4.70;;;;;;;;;;4992333;28;20077;-44
2022/05/18 09:51:53;;;;;;;8.60;4.32;;;;;;;;;;4992175;28;20137;-45
2022/05/18 09:54:20;;;;;;;9.38;4.53;;;;;;;;;;4991995;28;20039;-43
2022/05/18 09:56:51;;;;;;;9.02;4.68;;;;;;;;;;4992116;28;20060;-43
2022/05/18 09:59:21;;;;;;;9.57;4.15;;;;;;;;;;4991827;28;20038;-43
2022/05/18 10:07:34;;;;;;;8.15;4.47;;;;;;;;;;4992432;28;20570;-43
2022/05/18 10:10:13;;;;;;;11.05;4.95;;;;;;;;;;4992647;28;20038;-42
2022/05/18 10:12:43;;;;;;;8.70;4.13;;;;;;;;;;4992032;28;20078;-44
2022/05/18 10:15:25;;;;;;;10.00;5.18;;;;;;;;;;4992848;28;20392;-43
2022/05/18 10:17:54;;;;;;;10.82;4.68;;;;;;;;;;4992542;28;20058;-45
2022/05/18 10:20:28;;;;;;;12.40;5.50;;;;;;;;;;4992367;28;20126;-47
2022/05/18 10:22:56;;;;;;;7.85;4.70;;;;;;;;;;4992768;28;20148;-41
2022/05/18 10:25:25;;;;;;;8.25;4.65;;;;;;;;;;4992406;28;20033;-45
2022/05/18 10:27:52;;;;;;;9.50;4.80;;;;;;;;;;4993943;28;20049;-41
2022/05/18 10:30:46;;;;;;;8.93;4.80;;;;;;;;;;4994080;28;20040;-43
2022/05/18 10:33:19;;;;;;;7.78;4.43;;;;;;;;;;4989623;28;20050;-47
2022/05/18 10:35:49;;;;;;;9.45;5.05;;;;;;;;;;4992475;28;20030;-48
2022/05/18 10:38:22;;;;;;;9.52;4.53;;;;;;;;;;4991751;28;20035;-44
2022/05/18 10:40:49;;;;;;;9.15;4.63;;;;;;;;;;4992730;28;20433;-42
2022/05/18 10:43:29;;;;;;;8.23;4.32;;;;;;;;;;4991841;28;20488;-45
2022/05/18 10:45:57;;;;;;;9.38;4.95;;;;;;;;;;4992564;28;20034;-45
2022/05/18 10:48:27;;;;;;;8.93;4.80;;;;;;;;;;4992608;28;20034;-43
2022/05/18 10:51:02;;;;;;;9.90;5.45;;;;;;;;;;4994781;28;20033;-42
2022/05/18 10:53:34;;;;;;;11.00;4.85;;;;;;;;;;4996327;28;20026;-45
2022/05/18 10:56:07;;;;;;;6.93;4.57;;;;;;;;;;4995550;28;20173;-48
2022/05/18 10:58:37;;;;;;;7.38;4.35;;;;;;;;;;4995982;28;20109;-45
2022/05/18 11:01:10;;;;;;;8.23;4.47;;;;;;;;;;4996206;28;20045;-44
2022/05/18 11:03:37;;;;;;;11.95;4.95;;;;;;;;;;4995023;28;20046;-42
2022/05/18 11:06:07;;;;;;;8.38;5.28;;;;;;;;;;4996165;28;20033;-42
2022/05/18 11:08:34;;;;;;;10.13;4.88;;;;;;;;;;4995255;28;20049;-43
2022/05/18 11:11:04;;;;;;;9.75;4.50;;;;;;;;;;4996300;28;20054;-47
2022/05/18 11:13:42;;;;;;;7.88;4.90;;;;;;;;;;4996139;28;20557;-45
2022/05/18 11:16:23;;;;;;;8.95;5.05;;;;;;;;;;4995133;28;20038;-43
2022/05/18 11:18:55;;;;;;;8.77;4.85;;;;;;;;;;4995857;28;20121;-45
2022/05/18 11:21:28;;;;;;;8.90;4.78;;;;;;;;;;4994614;28;20481;-45
2022/05/18 11:23:58;;;;;;;8.93;4.90;;;;;;;;;;4995856;28;20388;-50
2022/05/18 11:26:25;;;;;;;8.18;5.22;;;;;;;;;;4995284;28;20034;-45
2022/05/18 11:29:10;;;;;;;10.43;4.90;;;;;;;;;;4995446;28;20117;-45
2022/05/18 11:31:49;;;;;;;9.27;4.85;;;;;;;;;;4995150;28;20048;-44
2022/05/18 11:34:22;;;;;;;10.98;5.35;;;;;;;;;;4995002;28;20058;-45
2022/05/18 11:36:52;;;;;;;9.80;4.82;;;;;;;;;;4995598;28;20034;-46
2022/05/18 11:39:25;;;;;;;8.73;4.72;;;;;;;;;;4995391;28;20050;-42
2022/05/18 11:41:52;;;;;;;9.60;4.93;;;;;;;;;;4995158;28;20034;-43
2022/05/18 11:44:36;;;;;;;8.77;4.95;;;;;;;;;;4995026;28;20084;-47
2022/05/18 11:47:03;;;;;;;9.38;4.65;;;;;;;;;;4995186;28;20038;-42
2022/05/18 11:49:39;;;;;;;8.65;4.78;;;;;;;;;;4995006;28;20122;-44
2022/05/18 11:52:17;;;;;;;9.80;4.70;;;;;;;;;;4995233;28;20069;-43
2022/05/18 11:55:02;;;;;;;12.25;5.07;;;;;;;;;;4994368;28;20101;-43
2022/05/18 11:57:47;;;;;;;10.85;5.32;;;;;;;;;;4995403;28;20388;-43
2022/05/18 12:00:19;;;;;;;10.18;4.90;;;;;;;;;;4994108;28;20104;-43
2022/05/18 12:02:55;;;;;;;9.80;4.60;;;;;;;;;;4994128;28;20057;-43
2022/05/18 12:05:31;;;;;;;11.02;5.22;;;;;;;;;;4994655;28;20065;-48
2022/05/18 12:08:24;;;;;;;10.40;5.40;;;;;;;;;;4994831;28;20046;-44
2022/05/18 12:10:52;;;;;;;9.13;4.75;;;;;;;;;;4994906;28;20428;-42
2022/05/18 12:13:24;;;;;;;9.77;4.68;;;;;;;;;;4993066;28;20023;-44
2022/05/18 12:16:07;;;;;;;8.15;4.30;;;;;;;;;;4983487;28;20109;-41
2022/05/18 12:18:42;;;;;;;8.70;4.30;;;;;;;;;;4982261;28;20113;-42
2022/05/18 12:21:20;;;;;;;7.25;4.45;;;;;;;;;;4982809;28;20034;-42
2022/05/18 12:23:49;;;;;;;7.07;3.88;;;;;;;;;;4985189;28;20022;-42
2022/05/18 12:26:17;;;;;;;10.60;4.10;;;;;;;;;;4982983;28;20031;-46
2022/05/18 12:28:45;;;;;;;10.95;4.63;;;;;;;;;;4975186;28;20042;-42
2022/05/18 12:31:12;;;;;;;8.70;4.00;;;;;;;;;;4983348;28;20030;-42
2022/05/18 12:33:47;;;;;;;7.25;4.07;;;;;;;;;;4974685;28;20516;-45
2022/05/18 12:36:16;;;;;;;7.78;3.80;;;;;;;;;;4974080;28;20394;-44
2022/05/18 12:38:55;;;;;;;6.10;3.58;;;;;;;;;;4974979;28;20105;-43
2022/05/18 12:41:26;;;;;;;9.32;4.22;;;;;;;;;;4973984;28;20042;-43
2022/05/18 12:44:04;;;;;;;9.48;3.40;;;;;;;;;;4974352;28;20563;-42
2022/05/18 12:46:37;;;;;;;8.23;3.72;;;;;;;;;;4974948;28;20035;-46
2022/05/18 12:49:27;;;;;;;5.95;3.45;;;;;;;;;;4974284;28;20038;-42
2022/05/18 12:52:04;;;;;;;6.75;3.50;;;;;;;;;;4964781;28;20039;-42
2022/05/18 12:54:40;;;;;;;7.97;4.10;;;;;;;;;;4973620;28;20421;-46
2022/05/18 12:57:07;;;;;;;7.22;3.83;;;;;;;;;;4974037;28;20035;-42
2022/05/18 12:59:55;;;;;;;8.30;3.70;;;;;;;;;;4981384;28;20047;-47
2022/05/18 13:02:40;;;;;;;9.52;3.85;;;;;;;;;;4981790;28;20062;-42
2022/05/18 13:05:31;;;;;;;6.00;3.67;;;;;;;;;;4983678;28;20501;-43
2022/05/18 13:08:04;;;;;;;5.55;3.35;;;;;;;;;;4984138;28;20105;-43
2022/05/18 13:10:35;;;;;;;6.82;2.97;;;;;;;;;;4982568;28;20077;-43
2022/05/18 13:13:20;;;;;;;6.47;3.30;;;;;;;;;;4983416;28;20483;-43
2022/05/18 13:16:00;;;;;;;6.05;2.95;;;;;;;;;;4982621;28;20031;-42
2022/05/18 13:18:35;;;;;;;6.63;3.22;;;;;;;;;;4982297;28;20050;-44
2022/05/18 13:21:08;;;;;;;7.38;3.10;;;;;;;;;;4981286;28;20496;-43
2022/05/18 13:23:53;;;;;;;7.32;3.70;;;;;;;;;;4976956;28;20639;-42
2022/05/18 13:26:23;;;;;;;5.93;2.88;;;;;;;;;;4982113;28;20038;-42
2022/05/18 13:28:51;;;;;;;5.30;3.13;;;;;;;;;;4980289;28;20489;-43
2022/05/18 13:31:19;;;;;;;4.85;3.15;;;;;;;;;;4973038;28;20046;-43
2022/05/18 13:33:48;;;;;;;8.00;3.17;;;;;;;;;;4975579;28;20476;-44
2022/05/18 13:36:15;;;;;;;8.07;3.47;;;;;;;;;;4975564;28;20031;-45
2022/05/18 13:38:42;;;;;;;6.28;3.97;;;;;;;;;;4974617;28;20042;-45
2022/05/18 13:41:12;;;;;;;11.25;4.03;;;;;;;;;;4973378;28;20045;-45
2022/05/18 13:43:41;;;;;;;10.68;4.10;;;;;;;;;;4988556;28;20026;-43
2022/05/18 13:46:17;;;;;;;11.48;4.72;;;;;;;;;;4986683;28;20041;-45
2022/05/18 13:48:44;;;;;;;10.27;4.30;;;;;;;;;;4990963;28;20030;-44
2022/05/18 13:51:14;;;;;;;10.13;3.88;;;;;;;;;;4986325;28;20046;-47
2022/05/18 13:53:48;;;;;;;8.57;3.72;;;;;;;;;;4983794;28;20042;-42
2022/05/18 13:56:15;;;;;;;9.32;4.18;;;;;;;;;;4988996;28;20038;-48
2022/05/18 13:58:44;;;;;;;12.45;4.75;;;;;;;;;;4991538;28;20030;-46
2022/05/18 14:01:13;;;;;;;13.50;4.10;;;;;;;;;;4990881;28;20089;-44
2022/05/18 14:03:43;;;;;;;8.70;3.95;;;;;;;;;;4991272;28;20595;-44
2022/05/18 14:06:13;;;;;;;11.55;3.97;;;;;;;;;;4990612;28;20436;-42
2022/05/18 14:08:41;;;;;;;9.60;5.00;;;;;;;;;;4991131;28;20079;-43
2022/05/18 14:11:10;;;;;;;8.10;3.80;;;;;;;;;;4984841;28;20034;-46
2022/05/18 14:13:37;;;;;;;9.68;3.95;;;;;;;;;;4990752;28;20488;-43
2022/05/18 14:16:05;;;;;;;6.43;3.83;;;;;;;;;;4973625;28;20088;-44
2022/05/18 14:18:41;;;;;;;11.13;4.10;;;;;;;;;;4990277;28;20065;-43
2022/05/18 14:21:10;;;;;;;9.88;3.80;;;;;;;;;;4989468;28;20433;-44
2022/05/18 14:23:44;;;;;;;7.70;3.85;;;;;;;;;;4971667;28;20103;-41
2022/05/18 14:26:13;;;;;;;9.02;3.60;;;;;;;;;;4974828;28;20033;-43
2022/05/18 14:28:46;;;;;;;10.23;4.25;;;;;;;;;;4975473;28;20085;-42
2022/05/18 14:31:12;;;;;;;;;;;;;;;;;;4975900;28;20499;-43
2022/05/18 14:33:50;;;;;;;17.27;5.80;;;;;;;;;;4976251;28;19921;-42
2022/05/18 14:36:37;;;;;;;18.95;6.13;;;;;;;;;;4974894;28;20471;-45
2022/05/18 14:39:05;;;;;;;20.90;7.03;;;;;;;;;;4957342;28;20041;-42
2022/05/18 14:41:41;;;;;;;19.70;6.25;;;;;;;;;;4975478;28;20050;-49
2022/05/18 14:44:08;;;;;;;18.13;7.03;;;;;;;;;;4975070;28;20034;-43
2022/05/18 14:46:35;;;;;;;24.42;7.43;;;;;;;;;;4973977;28;20090;-42
2022/05/18 14:49:13;;;;;;;16.38;7.30;;;;;;;;;;4975289;28;20117;-50
2022/05/18 14:51:40;;;;;;;24.20;8.15;;;;;;;;;;4981769;28;20113;-42
2022/05/18 14:54:14;;;;;;;23.90;7.70;;;;;;;;;;4974747;28;20045;-42
2022/05/18 14:56:43;;;;;;;22.17;8.10;;;;;;;;;;4975119;28;20053;-43
2022/05/18 14:59:13;;;;;;;28.45;8.27;;;;;;;;;;4974702;28;20031;-43
2022/05/18 15:01:42;;;;;;;24.42;7.72;;;;;;;;;;4974840;28;20034;-42
2022/05/18 15:04:12;;;;;;;22.92;7.75;;;;;;;;;;4988642;28;20046;-45